sensor_id;sensor_type;location;lat;lon;timestamp;pressure;altitude;pressure_sealevel;temperature;humidity
14882;BME280;7533;51.278;12.588;2023-10-09T00:04:15;100553.25;;;26.72;54.83
14882;BME280;7533;51.278;12.588;2023-10-09T00:09:20;100603.28;;;26.58;55.00
14882;BME280;7533;51.278;12.588;2023-10-09T00:14:33;100610.41;;;26.50;55.42
14882;BME280;7533;51.278;12.588;2023-10-09T00:19:40;100602.78;;;26.44;55.69
14882;BME280;7533;51.278;12.588;2023-10-09T00:24:46;100599.56;;;26.38;55.80
14882;BME280;7533;51.278;12.588;2023-10-09T00:29:52;100595.38;;;26.34;55.91
14882;BME280;7533;51.278;12.588;2023-10-09T00:34:59;100574.78;;;26.32;55.83
14882;BME280;7533;51.278;12.588;2023-10-09T00:40:30;100566.91;;;26.29;55.94
14882;BME280;7533;51.278;12.588;2023-10-09T00:45:34;100561.72;;;26.26;56.33
14882;BME280;7533;51.278;12.588;2023-10-09T00:50:41;100539.44;;;26.22;56.42
14882;BME280;7533;51.278;12.588;2023-10-09T00:55:55;100527.84;;;26.20;56.32
14882;BME280;7533;51.278;12.588;2023-10-09T01:00:58;100530.09;;;26.15;56.44
14882;BME280;7533;51.278;12.588;2023-10-09T01:06:02;100510.38;;;26.13;56.46
14882;BME280;7533;51.278;12.588;2023-10-09T01:11:20;100518.66;;;26.11;56.51
14882;BME280;7533;51.278;12.588;2023-10-09T01:16:25;100528.78;;;26.09;56.57
14882;BME280;7533;51.278;12.588;2023-10-09T01:21:28;100521.88;;;26.05;56.79
14882;BME280;7533;51.278;12.588;2023-10-09T01:26:37;100507.47;;;26.05;56.60
14882;BME280;7533;51.278;12.588;2023-10-09T01:31:48;100494.00;;;26.03;56.72
14882;BME280;7533;51.278;12.588;2023-10-09T01:36:56;100477.16;;;26.00;57.18
14882;BME280;7533;51.278;12.588;2023-10-09T01:42:03;100464.72;;;25.97;57.24
14882;BME280;7533;51.278;12.588;2023-10-09T01:47:09;100453.13;;;25.95;57.08
14882;BME280;7533;51.278;12.588;2023-10-09T01:52:16;100446.13;;;25.93;57.35
14882;BME280;7533;51.278;12.588;2023-10-09T01:57:20;100438.13;;;25.91;57.19
14882;BME280;7533;51.278;12.588;2023-10-09T02:02:25;100432.81;;;25.90;57.15
14882;BME280;7533;51.278;12.588;2023-10-09T02:07:29;100417.56;;;25.89;57.14
14882;BME280;7533;51.278;12.588;2023-10-09T02:12:44;100397.97;;;25.85;57.39
14882;BME280;7533;51.278;12.588;2023-10-09T02:17:48;100384.56;;;25.83;57.34
14882;BME280;7533;51.278;12.588;2023-10-09T02:23:02;100369.28;;;25.82;57.38
14882;BME280;7533;51.278;12.588;2023-10-09T02:28:13;100354.13;;;25.80;57.43
14882;BME280;7533;51.278;12.588;2023-10-09T02:33:20;100353.25;;;25.79;57.59
14882;BME280;7533;51.278;12.588;2023-10-09T02:38:29;100335.41;;;25.77;57.63
14882;BME280;7533;51.278;12.588;2023-10-09T02:43:36;100325.78;;;25.73;57.90
14882;BME280;7533;51.278;12.588;2023-10-09T02:48:47;100325.78;;;25.73;57.84
14882;BME280;7533;51.278;12.588;2023-10-09T02:53:52;100326.78;;;25.72;57.71
14882;BME280;7533;51.278;12.588;2023-10-09T02:58:56;100310.78;;;25.69;57.96
14882;BME280;7533;51.278;12.588;2023-10-09T03:04:07;100305.50;;;25.67;57.81
14882;BME280;7533;51.278;12.588;2023-10-09T03:09:12;100307.50;;;25.65;57.87
14882;BME280;7533;51.278;12.588;2023-10-09T03:14:21;100299.38;;;25.65;57.97
14882;BME280;7533;51.278;12.588;2023-10-09T03:19:29;100277.69;;;25.65;57.85
14882;BME280;7533;51.278;12.588;2023-10-09T03:24:32;100288.06;;;25.60;58.63
14882;BME280;7533;51.278;12.588;2023-10-09T03:29:38;100290.63;;;25.62;58.56
14882;BME280;7533;51.278;12.588;2023-10-09T03:34:41;100290.88;;;25.58;58.16
14882;BME280;7533;51.278;12.588;2023-10-09T03:39:45;100291.78;;;25.59;57.87
14882;BME280;7533;51.278;12.588;2023-10-09T03:44:50;100275.50;;;25.59;57.78
14882;BME280;7533;51.278;12.588;2023-10-09T03:49:55;100265.63;;;25.58;57.79
14882;BME280;7533;51.278;12.588;2023-10-09T03:54:59;100267.47;;;25.57;58.08
14882;BME280;7533;51.278;12.588;2023-10-09T04:00:14;100260.50;;;25.55;58.12
14882;BME280;7533;51.278;12.588;2023-10-09T04:05:25;100238.81;;;25.55;58.54
14882;BME280;7533;51.278;12.588;2023-10-09T04:10:30;100239.91;;;25.52;58.50
14882;BME280;7533;51.278;12.588;2023-10-09T04:15:46;100227.50;;;25.50;58.54
14882;BME280;7533;51.278;12.588;2023-10-09T04:20:51;100237.50;;;25.49;58.82
14882;BME280;7533;51.278;12.588;2023-10-09T04:26:08;100217.66;;;25.49;58.99
14882;BME280;7533;51.278;12.588;2023-10-09T04:31:17;100205.13;;;25.48;58.76
14882;BME280;7533;51.278;12.588;2023-10-09T04:36:21;100177.13;;;25.47;58.89
14882;BME280;7533;51.278;12.588;2023-10-09T04:41:24;100189.81;;;25.47;58.96
14882;BME280;7533;51.278;12.588;2023-10-09T04:46:35;100189.81;;;25.47;58.64
14882;BME280;7533;51.278;12.588;2023-10-09T04:51:45;100193.28;;;25.49;58.50
14882;BME280;7533;51.278;12.588;2023-10-09T04:57:06;100197.09;;;25.46;58.95
14882;BME280;7533;51.278;12.588;2023-10-09T05:02:21;100176.56;;;25.44;58.54
14882;BME280;7533;51.278;12.588;2023-10-09T05:07:25;100170.41;;;25.42;58.95
14882;BME280;7533;51.278;12.588;2023-10-09T05:12:48;100170.53;;;25.40;58.71
14882;BME280;7533;51.278;12.588;2023-10-09T05:17:59;100179.66;;;25.39;58.92
14882;BME280;7533;51.278;12.588;2023-10-09T05:23:11;100179.81;;;25.38;58.98
14882;BME280;7533;51.278;12.588;2023-10-09T05:28:27;100175.41;;;25.37;59.07
14882;BME280;7533;51.278;12.588;2023-10-09T05:33:51;100159.13;;;25.37;58.92
14882;BME280;7533;51.278;12.588;2023-10-09T05:39:00;100164.66;;;25.35;58.85
14882;BME280;7533;51.278;12.588;2023-10-09T05:44:17;100171.94;;;25.35;58.77
14882;BME280;7533;51.278;12.588;2023-10-09T05:49:39;100178.22;;;25.35;59.05
14882;BME280;7533;51.278;12.588;2023-10-09T05:55:06;100173.78;;;25.34;58.72
14882;BME280;7533;51.278;12.588;2023-10-09T06:00:37;100184.78;;;25.32;58.86
14882;BME280;7533;51.278;12.588;2023-10-09T06:05:59;100187.34;;;25.34;58.92
14882;BME280;7533;51.278;12.588;2023-10-09T06:11:07;100174.66;;;25.35;58.63
14882;BME280;7533;51.278;12.588;2023-10-09T06:16:31;100183.91;;;25.32;58.74
14882;BME280;7533;51.278;12.588;2023-10-09T06:21:45;100194.00;;;25.30;58.59
14882;BME280;7533;51.278;12.588;2023-10-09T06:27:05;100197.72;;;25.29;58.69
14882;BME280;7533;51.278;12.588;2023-10-09T06:32:26;100217.81;;;25.26;58.25
14882;BME280;7533;51.278;12.588;2023-10-09T06:37:40;100206.97;;;25.26;58.21
14882;BME280;7533;51.278;12.588;2023-10-09T06:43:03;100207.09;;;25.25;58.14
14882;BME280;7533;51.278;12.588;2023-10-09T06:48:10;100214.38;;;25.24;58.40
14882;BME280;7533;51.278;12.588;2023-10-09T06:53:29;100209.94;;;25.23;58.06
14882;BME280;7533;51.278;12.588;2023-10-09T06:59:00;100212.66;;;25.23;58.23
14882;BME280;7533;51.278;12.588;2023-10-09T07:04:06;100221.78;;;25.22;58.22
14882;BME280;7533;51.278;12.588;2023-10-09T07:09:22;100227.66;;;25.27;57.80
14882;BME280;7533;51.278;12.588;2023-10-09T07:14:29;100222.69;;;25.32;57.66
14882;BME280;7533;51.278;12.588;2023-10-09T07:19:55;100231.53;;;25.35;57.85
14882;BME280;7533;51.278;12.588;2023-10-09T07:25:16;100251.19;;;25.27;57.94
14882;BME280;7533;51.278;12.588;2023-10-09T07:30:29;100241.81;;;25.31;57.82
14882;BME280;7533;51.278;12.588;2023-10-09T07:35:39;100232.69;;;25.32;57.45
14882;BME280;7533;51.278;12.588;2023-10-09T07:40:51;100237.25;;;25.31;57.68
14882;BME280;7533;51.278;12.588;2023-10-09T07:46:01;100241.34;;;25.26;57.70
14882;BME280;7533;51.278;12.588;2023-10-09T07:51:23;100241.34;;;25.26;57.64
14882;BME280;7533;51.278;12.588;2023-10-09T07:56:34;100258.84;;;25.22;57.83
14882;BME280;7533;51.278;12.588;2023-10-09T08:01:44;100274.25;;;25.21;57.79
14882;BME280;7533;51.278;12.588;2023-10-09T08:06:55;100278.91;;;25.19;57.84
14882;BME280;7533;51.278;12.588;2023-10-09T08:12:20;100274.50;;;25.18;57.55
14882;BME280;7533;51.278;12.588;2023-10-09T08:17:40;100285.31;;;25.18;57.78
14882;BME280;7533;51.278;12.588;2023-10-09T08:22:50;100290.03;;;25.16;57.61
14882;BME280;7533;51.278;12.588;2023-10-09T08:27:56;100299.66;;;24.32;59.83
14882;BME280;7533;51.278;12.588;2023-10-09T08:32:59;100307.06;;;24.08;61.07
14882;BME280;7533;51.278;12.588;2023-10-09T08:38:28;100289.53;;;23.20;63.40
14882;BME280;7533;51.278;12.588;2023-10-09T08:43:37;100295.06;;;22.95;64.16
14882;BME280;7533;51.278;12.588;2023-10-09T08:48:44;100298.44;;;22.86;64.40
14882;BME280;7533;51.278;12.588;2023-10-09T08:53:47;100299.84;;;22.91;64.69
14882;BME280;7533;51.278;12.588;2023-10-09T08:58:53;100298.53;;;22.97;65.74
14882;BME280;7533;51.278;12.588;2023-10-09T09:03:58;100290.13;;;23.48;64.43
14882;BME280;7533;51.278;12.588;2023-10-09T09:09:10;100280.59;;;23.66;63.35
14882;BME280;7533;51.278;12.588;2023-10-09T09:14:17;100274.34;;;23.77;62.98
14882;BME280;7533;51.278;12.588;2023-10-09T09:19:31;100278.03;;;23.87;62.80
14882;BME280;7533;51.278;12.588;2023-10-09T09:24:35;100273.25;;;23.80;61.89
14882;BME280;7533;51.278;12.588;2023-10-09T09:29:41;100292.50;;;23.29;63.36
14882;BME280;7533;51.278;12.588;2023-10-09T09:34:54;100304.91;;;22.96;65.23
14882;BME280;7533;51.278;12.588;2023-10-09T09:39:58;100293.06;;;23.10;66.81
14882;BME280;7533;51.278;12.588;2023-10-09T09:45:07;100282.72;;;23.39;65.17
14882;BME280;7533;51.278;12.588;2023-10-09T09:50:13;100271.59;;;23.55;64.62
14882;BME280;7533;51.278;12.588;2023-10-09T09:55:32;100259.97;;;23.65;64.29
14882;BME280;7533;51.278;12.588;2023-10-09T10:00:38;100256.41;;;23.76;63.80
14882;BME280;7533;51.278;12.588;2023-10-09T10:05:46;100252.00;;;23.86;63.55
14882;BME280;7533;51.278;12.588;2023-10-09T10:10:50;100245.13;;;23.93;63.19
14882;BME280;7533;51.278;12.588;2023-10-09T10:16:05;100241.91;;;23.99;63.04
14882;BME280;7533;51.278;12.588;2023-10-09T10:21:14;100226.19;;;24.05;62.80
14882;BME280;7533;51.278;12.588;2023-10-09T10:26:20;100211.53;;;24.07;62.63
14882;BME280;7533;51.278;12.588;2023-10-09T10:31:52;100209.81;;;24.06;62.86
14882;BME280;7533;51.278;12.588;2023-10-09T10:36:56;100212.44;;;24.08;62.95
14882;BME280;7533;51.278;12.588;2023-10-09T10:42:03;100200.63;;;24.09;63.31
14882;BME280;7533;51.278;12.588;2023-10-09T10:47:13;100197.53;;;24.13;63.21
14882;BME280;7533;51.278;12.588;2023-10-09T10:52:27;100196.56;;;24.14;63.38
14882;BME280;7533;51.278;12.588;2023-10-09T10:57:45;100191.72;;;24.18;62.96
14882;BME280;7533;51.278;12.588;2023-10-09T11:03:04;100189.03;;;24.18;63.00
14882;BME280;7533;51.278;12.588;2023-10-09T11:08:24;100199.84;;;24.18;62.84
14882;BME280;7533;51.278;12.588;2023-10-09T11:13:34;100198.00;;;24.18;63.03
14882;BME280;7533;51.278;12.588;2023-10-09T11:18:41;100201.31;;;24.22;62.95
14882;BME280;7533;51.278;12.588;2023-10-09T11:23:48;100195.78;;;24.23;62.75
14882;BME280;7533;51.278;12.588;2023-10-09T11:29:08;100191.97;;;24.26;62.82
14882;BME280;7533;51.278;12.588;2023-10-09T11:34:27;100190.00;;;24.28;62.62
14882;BME280;7533;51.278;12.588;2023-10-09T11:39:34;100206.22;;;24.28;62.64
14882;BME280;7533;51.278;12.588;2023-10-09T11:44:39;100215.19;;;24.28;62.90
14882;BME280;7533;51.278;12.588;2023-10-09T11:49:49;100217.91;;;24.28;62.89
14882;BME280;7533;51.278;12.588;2023-10-09T11:54:58;100228.47;;;24.32;62.96
14882;BME280;7533;51.278;12.588;2023-10-09T12:00:03;100222.94;;;24.33;63.14
14882;BME280;7533;51.278;12.588;2023-10-09T12:05:28;100229.00;;;24.37;62.76
14882;BME280;7533;51.278;12.588;2023-10-09T12:10:31;100221.75;;;24.37;62.99
14882;BME280;7533;51.278;12.588;2023-10-09T12:15:35;100215.94;;;24.42;62.66
14882;BME280;7533;51.278;12.588;2023-10-09T12:20:43;100214.22;;;24.41;62.61
14882;BME280;7533;51.278;12.588;2023-10-09T12:25:52;100234.13;;;24.40;62.81
14882;BME280;7533;51.278;12.588;2023-10-09T12:30:59;100226.78;;;24.42;62.84
14882;BME280;7533;51.278;12.588;2023-10-09T12:36:04;100226.50;;;24.34;62.74
14882;BME280;7533;51.278;12.588;2023-10-09T12:41:07;100214.63;;;24.14;64.67
14882;BME280;7533;51.278;12.588;2023-10-09T12:46:17;100215.88;;;23.98;66.14
14882;BME280;7533;51.278;12.588;2023-10-09T12:51:25;100207.09;;;24.17;65.36
14882;BME280;7533;51.278;12.588;2023-10-09T12:56:31;100225.66;;;24.22;64.78
14882;BME280;7533;51.278;12.588;2023-10-09T13:01:40;100220.88;;;24.25;64.48
14882;BME280;7533;51.278;12.588;2023-10-09T13:06:48;100209.53;;;24.32;64.14
14882;BME280;7533;51.278;12.588;2023-10-09T13:11:54;100210.25;;;24.34;64.71
14882;BME280;7533;51.278;12.588;2023-10-09T13:17:01;100208.22;;;24.37;65.21
14882;BME280;7533;51.278;12.588;2023-10-09T13:22:11;100193.81;;;24.37;64.67
14882;BME280;7533;51.278;12.588;2023-10-09T13:27:15;100191.00;;;24.38;64.48
14882;BME280;7533;51.278;12.588;2023-10-09T13:32:23;100192.69;;;24.39;64.66
14882;BME280;7533;51.278;12.588;2023-10-09T13:37:27;100193.44;;;24.41;64.32
14882;BME280;7533;51.278;12.588;2023-10-09T13:42:32;100189.63;;;24.44;64.50
14882;BME280;7533;51.278;12.588;2023-10-09T13:47:37;100193.91;;;24.46;64.18
14882;BME280;7533;51.278;12.588;2023-10-09T13:52:41;100198.34;;;24.47;63.93
14882;BME280;7533;51.278;12.588;2023-10-09T13:57:44;100194.66;;;24.48;63.92
14882;BME280;7533;51.278;12.588;2023-10-09T14:02:47;100204.34;;;24.51;64.04
14882;BME280;7533;51.278;12.588;2023-10-09T14:07:55;100201.63;;;24.51;63.59
14882;BME280;7533;51.278;12.588;2023-10-09T14:13:02;100197.94;;;24.52;63.89
14882;BME280;7533;51.278;12.588;2023-10-09T14:18:13;100196.22;;;24.51;63.85
14882;BME280;7533;51.278;12.588;2023-10-09T14:23:18;100193.53;;;24.51;63.49
14882;BME280;7533;51.278;12.588;2023-10-09T14:28:23;100192.53;;;24.52;63.76
14882;BME280;7533;51.278;12.588;2023-10-09T14:33:30;100195.72;;;24.57;63.77
14882;BME280;7533;51.278;12.588;2023-10-09T14:38:39;100196.00;;;24.54;63.42
14882;BME280;7533;51.278;12.588;2023-10-09T14:43:43;100194.00;;;24.56;63.67
14882;BME280;7533;51.278;12.588;2023-10-09T14:48:47;100203.97;;;24.56;63.76
14882;BME280;7533;51.278;12.588;2023-10-09T14:53:54;100196.00;;;24.54;63.72
14882;BME280;7533;51.278;12.588;2023-10-09T14:58:59;100197.31;;;24.60;63.64
14882;BME280;7533;51.278;12.588;2023-10-09T15:04:03;100184.59;;;24.71;63.47
14882;BME280;7533;51.278;12.588;2023-10-09T15:09:08;100189.97;;;24.83;63.31
14882;BME280;7533;51.278;12.588;2023-10-09T15:14:11;100202.59;;;24.93;63.16
14882;BME280;7533;51.278;12.588;2023-10-09T15:19:16;100198.22;;;25.02;62.78
14882;BME280;7533;51.278;12.588;2023-10-09T15:24:20;100193.19;;;25.09;62.82
14882;BME280;7533;51.278;12.588;2023-10-09T15:29:25;100201.50;;;25.17;62.43
14882;BME280;7533;51.278;12.588;2023-10-09T15:34:32;100196.41;;;25.23;62.33
14882;BME280;7533;51.278;12.588;2023-10-09T15:39:39;100201.44;;;25.28;62.21
14882;BME280;7533;51.278;12.588;2023-10-09T15:44:42;100204.19;;;25.38;62.14
14882;BME280;7533;51.278;12.588;2023-10-09T15:49:49;100210.09;;;25.43;61.99
14882;BME280;7533;51.278;12.588;2023-10-09T15:54:57;100217.66;;;25.49;61.72
14882;BME280;7533;51.278;12.588;2023-10-09T16:00:00;100215.13;;;25.57;61.23
14882;BME280;7533;51.278;12.588;2023-10-09T16:05:12;100223.56;;;25.64;61.49
14882;BME280;7533;51.278;12.588;2023-10-09T16:10:16;100229.44;;;25.69;61.89
14882;BME280;7533;51.278;12.588;2023-10-09T16:15:19;100230.41;;;25.79;62.11
14882;BME280;7533;51.278;12.588;2023-10-09T16:20:26;100236.97;;;25.86;62.31
14882;BME280;7533;51.278;12.588;2023-10-09T16:25:31;100221.16;;;25.91;62.66
14882;BME280;7533;51.278;12.588;2023-10-09T16:30:35;100230.59;;;25.97;62.99
14882;BME280;7533;51.278;12.588;2023-10-09T16:35:38;100232.78;;;26.03;62.35
14882;BME280;7533;51.278;12.588;2023-10-09T16:40:44;100240.34;;;26.09;62.16
14882;BME280;7533;51.278;12.588;2023-10-09T16:45:55;100250.53;;;26.17;61.99
14882;BME280;7533;51.278;12.588;2023-10-09T16:51:01;100244.97;;;26.18;61.82
14882;BME280;7533;51.278;12.588;2023-10-09T16:56:10;100254.56;;;26.22;61.44
14882;BME280;7533;51.278;12.588;2023-10-09T17:01:13;100250.97;;;26.22;61.48
14882;BME280;7533;51.278;12.588;2023-10-09T17:06:16;100270.97;;;26.30;60.79
14882;BME280;7533;51.278;12.588;2023-10-09T17:11:22;100256.41;;;26.31;60.85
14882;BME280;7533;51.278;12.588;2023-10-09T17:16:26;100261.16;;;26.39;60.42
14882;BME280;7533;51.278;12.588;2023-10-09T17:21:30;100263.72;;;26.41;60.58
14882;BME280;7533;51.278;12.588;2023-10-09T17:26:39;100271.34;;;26.47;60.33
14882;BME280;7533;51.278;12.588;2023-10-09T17:31:43;100273.66;;;26.51;60.02
14882;BME280;7533;51.278;12.588;2023-10-09T17:36:46;100276.06;;;26.54;60.11
14882;BME280;7533;51.278;12.588;2023-10-09T17:41:52;100278.38;;;26.59;59.87
14882;BME280;7533;51.278;12.588;2023-10-09T17:46:56;100276.25;;;26.62;59.83
14882;BME280;7533;51.278;12.588;2023-10-09T17:52:01;100280.25;;;26.68;59.70
14882;BME280;7533;51.278;12.588;2023-10-09T17:57:09;100279.25;;;26.69;59.51
14882;BME280;7533;51.278;12.588;2023-10-09T18:02:12;100274.25;;;26.74;59.42
14882;BME280;7533;51.278;12.588;2023-10-09T18:07:15;100271.13;;;26.79;59.08
14882;BME280;7533;51.278;12.588;2023-10-09T18:12:22;100277.13;;;26.82;59.22
14882;BME280;7533;51.278;12.588;2023-10-09T18:17:26;100286.00;;;26.84;59.34
14882;BME280;7533;51.278;12.588;2023-10-09T18:22:30;100280.13;;;26.79;59.41
14882;BME280;7533;51.278;12.588;2023-10-09T18:27:35;100274.56;;;26.90;59.11
14882;BME280;7533;51.278;12.588;2023-10-09T18:32:38;100279.44;;;26.97;58.78
14882;BME280;7533;51.278;12.588;2023-10-09T18:37:41;100276.00;;;26.95;59.18
14882;BME280;7533;51.278;12.588;2023-10-09T18:42:45;100279.00;;;27.01;58.93
14882;BME280;7533;51.278;12.588;2023-10-09T18:47:49;100277.59;;;27.07;58.90
14882;BME280;7533;51.278;12.588;2023-10-09T18:52:52;100279.91;;;27.11;58.64
14882;BME280;7533;51.278;12.588;2023-10-09T18:57:57;100277.72;;;27.15;58.80
14882;BME280;7533;51.278;12.588;2023-10-09T19:02:59;100274.59;;;27.20;58.45
14882;BME280;7533;51.278;12.588;2023-10-09T19:08:03;100275.28;;;27.22;58.57
14882;BME280;7533;51.278;12.588;2023-10-09T19:13:08;100277.88;;;27.23;58.26
14882;BME280;7533;51.278;12.588;2023-10-09T19:18:12;100284.19;;;27.24;58.28
14882;BME280;7533;51.278;12.588;2023-10-09T19:23:15;100293.34;;;27.23;58.34
14882;BME280;7533;51.278;12.588;2023-10-09T19:28:19;100294.75;;;27.27;58.37
14882;BME280;7533;51.278;12.588;2023-10-09T19:33:22;100301.63;;;27.31;58.25
14882;BME280;7533;51.278;12.588;2023-10-09T19:38:25;100306.91;;;27.32;58.39
14882;BME280;7533;51.278;12.588;2023-10-09T19:43:35;100297.78;;;27.33;58.08
14882;BME280;7533;51.278;12.588;2023-10-09T19:48:38;100311.22;;;27.35;58.15
14882;BME280;7533;51.278;12.588;2023-10-09T19:53:41;100309.63;;;27.42;58.11
14882;BME280;7533;51.278;12.588;2023-10-09T19:58:46;100306.75;;;27.43;57.93
14882;BME280;7533;51.278;12.588;2023-10-09T20:03:49;100316.34;;;27.48;57.83
14882;BME280;7533;51.278;12.588;2023-10-09T20:08:53;100328.06;;;27.48;57.88
14882;BME280;7533;51.278;12.588;2023-10-09T20:13:57;100330.63;;;27.50;57.84
14882;BME280;7533;51.278;12.588;2023-10-09T20:19:02;100335.09;;;27.51;57.99
14882;BME280;7533;51.278;12.588;2023-10-09T20:24:09;100331.53;;;27.50;57.85
14882;BME280;7533;51.278;12.588;2023-10-09T20:29:16;100333.34;;;27.50;57.80
14882;BME280;7533;51.278;12.588;2023-10-09T20:34:19;100338.34;;;27.54;57.70
14882;BME280;7533;51.278;12.588;2023-10-09T20:39:22;100343.69;;;27.56;57.65
14882;BME280;7533;51.278;12.588;2023-10-09T20:44:29;100351.38;;;27.60;57.46
14882;BME280;7533;51.278;12.588;2023-10-09T20:49:32;100344.81;;;27.63;57.52
14882;BME280;7533;51.278;12.588;2023-10-09T20:54:37;100344.66;;;27.64;57.56
14882;BME280;7533;51.278;12.588;2023-10-09T20:59:42;100357.38;;;27.64;57.69
14882;BME280;7533;51.278;12.588;2023-10-09T21:04:47;100354.66;;;27.64;57.65
14882;BME280;7533;51.278;12.588;2023-10-09T21:09:52;100350.94;;;27.65;57.44
14882;BME280;7533;51.278;12.588;2023-10-09T21:14:57;100355.38;;;27.66;57.37
14882;BME280;7533;51.278;12.588;2023-10-09T21:20:02;100357.13;;;27.67;57.27
14882;BME280;7533;51.278;12.588;2023-10-09T21:25:06;100357.69;;;27.71;57.29
14882;BME280;7533;51.278;12.588;2023-10-09T21:30:11;100362.97;;;27.72;57.56
14882;BME280;7533;51.278;12.588;2023-10-09T21:35:18;100379.03;;;27.75;57.24
14882;BME280;7533;51.278;12.588;2023-10-09T21:40:22;100375.44;;;27.75;57.28
14882;BME280;7533;51.278;12.588;2023-10-09T21:45:31;100380.72;;;27.76;57.44
14882;BME280;7533;51.278;12.588;2023-10-09T21:50:34;100376.88;;;27.79;57.47
14882;BME280;7533;51.278;12.588;2023-10-09T21:55:38;100377.44;;;27.82;57.29
14882;BME280;7533;51.278;12.588;2023-10-09T22:00:44;100382.75;;;27.84;57.23
14882;BME280;7533;51.278;12.588;2023-10-09T22:05:48;100398.34;;;27.82;57.21
14882;BME280;7533;51.278;12.588;2023-10-09T22:10:51;100402.50;;;27.76;57.35
14882;BME280;7533;51.278;12.588;2023-10-09T22:15:56;100399.34;;;27.71;57.30
14882;BME280;7533;51.278;12.588;2023-10-09T22:20:59;100397.03;;;27.66;57.51
14882;BME280;7533;51.278;12.588;2023-10-09T22:26:06;100396.47;;;27.63;57.49
14882;BME280;7533;51.278;12.588;2023-10-09T22:31:17;100405.06;;;27.58;57.88
14882;BME280;7533;51.278;12.588;2023-10-09T22:36:22;100397.31;;;27.54;57.86
14882;BME280;7533;51.278;12.588;2023-10-09T22:41:47;100403.91;;;27.51;57.94
14882;BME280;7533;51.278;12.588;2023-10-09T22:46:53;100413.34;;;27.47;58.20
14882;BME280;7533;51.278;12.588;2023-10-09T22:51:57;100418.78;;;27.47;58.13
14882;BME280;7533;51.278;12.588;2023-10-09T22:57:00;100415.38;;;27.45;58.29
14882;BME280;7533;51.278;12.588;2023-10-09T23:02:05;100402.03;;;27.42;58.32
14882;BME280;7533;51.278;12.588;2023-10-09T23:07:11;100410.06;;;27.34;58.46
14882;BME280;7533;51.278;12.588;2023-10-09T23:12:18;100411.31;;;27.20;58.80
14882;BME280;7533;51.278;12.588;2023-10-09T23:17:26;100414.75;;;27.12;59.01
14882;BME280;7533;51.278;12.588;2023-10-09T23:22:43;100412.44;;;27.08;59.22
14882;BME280;7533;51.278;12.588;2023-10-09T23:27:53;100417.13;;;27.06;59.48
14882;BME280;7533;51.278;12.588;2023-10-09T23:33:16;100413.81;;;27.02;59.56
14882;BME280;7533;51.278;12.588;2023-10-09T23:38:23;100419.53;;;26.99;59.53
14882;BME280;7533;51.278;12.588;2023-10-09T23:43:36;100424.25;;;26.97;59.75
14882;BME280;7533;51.278;12.588;2023-10-09T23:48:47;100428.13;;;26.95;59.88
14882;BME280;7533;51.278;12.588;2023-10-09T23:53:54;100428.22;;;26.93;59.52
14882;BME280;7533;51.278;12.588;2023-10-09T23:59:03;100424.66;;;26.93;59.88
